createdAt,value
2022-09-28T00:11:08.512Z,1000.3
2022-09-28T00:26:43.156Z,1000.2
2022-09-28T00:42:17.645Z,999.9
2022-09-28T00:57:52.147Z,999.7
2022-09-28T01:13:26.632Z,999.4
2022-09-28T01:29:01.108Z,999.2
2022-09-28T01:44:35.658Z,999.1
2022-09-28T02:00:10.169Z,999.1
2022-09-28T02:15:45.141Z,998.8
2022-09-28T02:31:20.020Z,998.7
2022-09-28T02:46:54.852Z,998.6
2022-09-28T03:02:29.500Z,998.4
2022-09-28T03:18:04.040Z,998.2
2022-09-28T03:33:38.538Z,998
2022-09-28T03:49:13.011Z,998
2022-09-28T04:04:47.512Z,997.7
2022-09-28T04:20:22.021Z,997.5
2022-09-28T04:35:56.689Z,997.2
2022-09-28T04:51:31.173Z,997.1
2022-09-28T05:07:05.715Z,996.9
2022-09-28T05:22:40.191Z,996.8
2022-09-28T05:38:14.687Z,996.7
2022-09-28T05:53:49.175Z,996.6
2022-09-28T06:09:25.977Z,996.6
2022-09-28T06:25:00.521Z,996.6
2022-09-28T06:40:35.087Z,996.5
2022-09-28T06:56:10.182Z,996.4
2022-09-28T07:11:44.798Z,996.4
2022-09-28T07:27:19.419Z,996.4
2022-09-28T07:42:53.977Z,996.4
2022-09-28T07:58:28.728Z,996.5
2022-09-28T08:14:03.216Z,996.7
2022-09-28T08:29:37.690Z,996.8
2022-09-28T08:45:12.325Z,996.9
2022-09-28T09:00:47.259Z,997.1
2022-09-28T09:16:22.203Z,997.2
2022-09-28T09:31:57.011Z,997.3
2022-09-28T09:47:31.501Z,997.4
2022-09-28T10:03:06.125Z,997.6
2022-09-28T10:18:40.683Z,997.7
2022-09-28T10:34:15.281Z,998
2022-09-28T10:49:49.822Z,998.1
2022-09-28T11:05:24.399Z,998.4
2022-09-28T11:20:58.959Z,998.4
2022-09-28T11:36:33.492Z,998.3
2022-09-28T11:52:10.753Z,998.1
2022-09-28T12:07:45.353Z,998.4
2022-09-28T12:23:20.112Z,998.6
2022-09-28T12:39:15.070Z,998.6
2022-09-28T12:55:08.376Z,998.7
2022-09-28T13:10:42.933Z,998.7
2022-09-28T13:26:17.464Z,998.9
2022-09-28T13:41:51.950Z,999.1
2022-09-28T13:57:26.439Z,999.2
2022-09-28T14:13:02.318Z,999.2
2022-09-28T14:28:38.720Z,999.3
2022-09-28T14:44:28.299Z,999.4
2022-09-28T15:09:16.344Z,999.5
2022-09-28T15:24:50.878Z,999.6
2022-09-28T15:40:25.553Z,999.7
2022-09-28T15:56:00.445Z,999.9
2022-09-28T16:27:24.620Z,1000.1
2022-09-28T16:42:59.529Z,1000.2
2022-09-28T16:58:34.573Z,1000.4
2022-09-28T17:14:09.161Z,1000.4
2022-09-28T17:29:43.909Z,1000.6
2022-09-28T17:45:18.571Z,1000.7
2022-09-28T18:00:53.180Z,1000.9
2022-09-28T18:32:47.282Z,1001.1
2022-09-28T18:48:21.936Z,1001.3
2022-09-28T19:03:57.011Z,1001.4
2022-09-28T19:19:31.794Z,1001.5
2022-09-28T19:35:06.601Z,1001.6
2022-09-28T19:50:41.691Z,1001.6
2022-09-28T20:06:17.415Z,1001.8
2022-09-28T20:37:41.774Z,1002.2
2022-09-28T20:53:16.645Z,1002.3
2022-09-28T21:24:40.515Z,1002.5
2022-09-28T21:40:15.261Z,1002.6
2022-09-28T21:55:50.187Z,1002.6
2022-09-28T22:11:24.783Z,1002.6
2022-09-28T22:26:59.362Z,1002.7
2022-09-28T22:42:33.960Z,1002.6
2022-09-28T22:58:08.553Z,1002.6
2022-09-28T23:13:43.126Z,1002.7
2022-09-28T23:29:17.728Z,1002.7
2022-09-28T23:44:52.334Z,1002.8
